Time;durP1;ratioP1;P1;durP2;ratioP2;P2;SDS_P1;SDS_P2;PMS_P1;PMS_P2;Temp;Humidity;BMP_temperature;BMP_pressure;BME280_temperature;BME280_humidity;BME280_pressure;Samples;Min_cycle;Max_cycle;Signal;HPM_P1;HPM_P2
2023/09/26 00:00:35;;;;;;;5.95;2.83;;;;;;;;;;5028277;28;20287;-72
2023/09/26 00:03:00;;;;;;;4.63;2.03;;;;;;;;;;5030041;28;20049;-72
2023/09/26 00:05:26;;;;;;;6.47;2.63;;;;;;;;;;5029252;28;20515;-72
2023/09/26 00:07:51;;;;;;;8.15;2.53;;;;;;;;;;5021867;28;20029;-72
2023/09/26 00:10:16;;;;;;;8.13;2.10;;;;;;;;;;5025370;28;20018;-72
2023/09/26 00:12:42;;;;;;;4.20;2.15;;;;;;;;;;5027243;28;20480;-72
2023/09/26 00:15:08;;;;;;;9.75;2.33;;;;;;;;;;5025855;28;20013;-72
2023/09/26 00:17:33;;;;;;;5.47;2.22;;;;;;;;;;5027060;28;20548;-72
2023/09/26 00:19:59;;;;;;;3.80;1.77;;;;;;;;;;5024344;28;20712;-72
2023/09/26 00:22:24;;;;;;;4.53;1.98;;;;;;;;;;5028817;28;20022;-72
2023/09/26 00:24:50;;;;;;;6.53;2.40;;;;;;;;;;5029421;28;20033;-72
2023/09/26 00:27:17;;;;;;;6.20;3.13;;;;;;;;;;5027469;28;20028;-72
2023/09/26 00:29:43;;;;;;;8.57;2.22;;;;;;;;;;5028606;28;20554;-72
2023/09/26 00:32:08;;;;;;;3.50;1.93;;;;;;;;;;5028196;28;20117;-72
2023/09/26 00:34:33;;;;;;;5.00;2.43;;;;;;;;;;5028030;28;20279;-72
2023/09/26 00:36:58;;;;;;;3.50;2.07;;;;;;;;;;5028046;28;20319;-72
2023/09/26 00:39:23;;;;;;;4.27;2.23;;;;;;;;;;5028622;28;20272;-72
2023/09/26 00:41:48;;;;;;;3.93;2.13;;;;;;;;;;5030183;28;20037;-72
2023/09/26 00:44:14;;;;;;;5.80;2.03;;;;;;;;;;5029000;28;20364;-72
2023/09/26 00:46:40;;;;;;;3.55;2.20;;;;;;;;;;5029603;28;20021;-72
2023/09/26 00:49:06;;;;;;;4.13;2.00;;;;;;;;;;5022068;28;20485;-72
2023/09/26 00:51:31;;;;;;;5.95;2.67;;;;;;;;;;5029532;28;20075;-72
2023/09/26 00:53:57;;;;;;;3.60;2.08;;;;;;;;;;5022802;28;20030;-72
2023/09/26 00:56:23;;;;;;;6.15;2.38;;;;;;;;;;5026238;28;20140;-72
2023/09/26 00:58:48;;;;;;;6.32;2.50;;;;;;;;;;5024622;28;20082;-72
2023/09/26 01:01:13;;;;;;;5.35;2.20;;;;;;;;;;5029674;28;20391;-72
2023/09/26 01:03:39;;;;;;;6.20;2.50;;;;;;;;;;5024343;28;20124;-72
2023/09/26 01:06:05;;;;;;;6.25;2.42;;;;;;;;;;5031570;28;20104;-72
2023/09/26 01:08:30;;;;;;;10.15;2.65;;;;;;;;;;5030179;28;20044;-72
2023/09/26 01:10:56;;;;;;;7.28;2.50;;;;;;;;;;5031258;28;20376;-72
2023/09/26 01:13:22;;;;;;;5.63;1.98;;;;;;;;;;5027187;28;20392;-72
2023/09/26 01:15:47;;;;;;;8.23;2.30;;;;;;;;;;5027870;28;20092;-72
2023/09/26 01:18:13;;;;;;;7.20;2.33;;;;;;;;;;5033045;28;20272;-72
2023/09/26 01:20:45;;;;;;;3.97;2.60;;;;;;;;;;5031929;28;20268;-72
2023/09/26 01:23:12;;;;;;;4.93;2.47;;;;;;;;;;5033283;28;20084;-72
2023/09/26 01:25:37;;;;;;;4.07;2.42;;;;;;;;;;5031709;28;20373;-72
2023/09/26 01:28:07;;;;;;;5.38;2.50;;;;;;;;;;5030866;28;20071;-72
2023/09/26 01:30:39;;;;;;;4.63;2.30;;;;;;;;;;5032184;28;20023;-72
2023/09/26 01:33:05;;;;;;;4.43;2.28;;;;;;;;;;5028046;28;20116;-72
2023/09/26 01:35:30;;;;;;;4.38;2.30;;;;;;;;;;5028932;28;20427;-72
2023/09/26 01:37:56;;;;;;;8.63;2.45;;;;;;;;;;5030027;28;20014;-72
2023/09/26 01:40:21;;;;;;;2.85;2.30;;;;;;;;;;5030693;28;20029;-72
2023/09/26 01:42:46;;;;;;;4.53;2.10;;;;;;;;;;5031609;28;20029;-72
2023/09/26 01:45:11;;;;;;;8.05;2.20;;;;;;;;;;5031840;28;20473;-72
2023/09/26 01:47:42;;;;;;;5.93;1.90;;;;;;;;;;5029217;28;20084;-72
2023/09/26 01:50:08;;;;;;;9.13;2.25;;;;;;;;;;5028932;28;20265;-72
2023/09/26 01:52:35;;;;;;;6.18;2.33;;;;;;;;;;5031184;28;20042;-72
2023/09/26 01:55:01;;;;;;;3.83;2.13;;;;;;;;;;5032991;28;20450;-72
2023/09/26 01:57:26;;;;;;;6.75;1.90;;;;;;;;;;5031263;28;20021;-72
2023/09/26 01:59:51;;;;;;;4.30;2.37;;;;;;;;;;5027515;28;20404;-72
2023/09/26 02:02:16;;;;;;;6.57;2.23;;;;;;;;;;5025032;28;20268;-72
2023/09/26 02:04:41;;;;;;;5.23;2.30;;;;;;;;;;5026784;28;20264;-72
2023/09/26 02:07:07;;;;;;;2.93;2.10;;;;;;;;;;5026837;28;20284;-72
2023/09/26 02:09:32;;;;;;;6.07;2.57;;;;;;;;;;5028042;28;20268;-72
2023/09/26 02:11:57;;;;;;;4.33;2.30;;;;;;;;;;5030572;28;20298;-72
2023/09/26 02:14:22;;;;;;;4.80;2.00;;;;;;;;;;5027019;28;20284;-72
2023/09/26 02:16:47;;;;;;;10.35;2.60;;;;;;;;;;5026693;28;20291;-72
2023/09/26 02:19:13;;;;;;;3.90;1.70;;;;;;;;;;5029051;28;20010;-72
2023/09/26 02:21:38;;;;;;;6.03;2.17;;;;;;;;;;5032642;28;20824;-72
2023/09/26 02:24:03;;;;;;;6.83;2.80;;;;;;;;;;5034165;28;20264;-72
2023/09/26 02:26:28;;;;;;;4.80;2.33;;;;;;;;;;5034346;28;20272;-72
2023/09/26 02:28:53;;;;;;;5.57;2.45;;;;;;;;;;5030217;28;20107;-72
2023/09/26 02:31:19;;;;;;;10.10;2.43;;;;;;;;;;5030333;28;20029;-72
2023/09/26 02:33:45;;;;;;;2.88;1.95;;;;;;;;;;5028974;28;20316;-72
2023/09/26 02:36:10;;;;;;;5.65;2.80;;;;;;;;;;5028076;28;20020;-72
2023/09/26 02:38:35;;;;;;;3.83;2.00;;;;;;;;;;5029776;28;20047;-72
2023/09/26 02:41:00;;;;;;;6.73;2.57;;;;;;;;;;5027589;28;20116;-72
2023/09/26 02:43:25;;;;;;;6.23;2.20;;;;;;;;;;5030181;28;20283;-72
2023/09/26 02:45:51;;;;;;;5.63;2.20;;;;;;;;;;5030420;28;20291;-72
2023/09/26 02:48:16;;;;;;;6.67;2.37;;;;;;;;;;5030685;28;20538;-72
2023/09/26 02:50:42;;;;;;;4.28;2.28;;;;;;;;;;5032403;28;20276;-72
2023/09/26 02:53:07;;;;;;;13.68;2.95;;;;;;;;;;5029121;28;20029;-72
2023/09/26 02:55:32;;;;;;;4.47;2.40;;;;;;;;;;5033272;28;20143;-72
2023/09/26 02:57:57;;;;;;;6.20;2.70;;;;;;;;;;5030867;28;20072;-72
2023/09/26 03:00:23;;;;;;;6.07;2.37;;;;;;;;;;5031630;28;20275;-72
2023/09/26 03:02:48;;;;;;;8.68;2.40;;;;;;;;;;5029759;28;20288;-72
2023/09/26 03:05:14;;;;;;;5.75;2.60;;;;;;;;;;5032006;28;20384;-72
2023/09/26 03:07:39;;;;;;;4.97;2.50;;;;;;;;;;5026680;28;20140;-72
2023/09/26 03:10:05;;;;;;;4.53;2.58;;;;;;;;;;5032620;28;20448;-72
2023/09/26 03:12:31;;;;;;;9.65;3.08;;;;;;;;;;5026564;28;20028;-72
2023/09/26 03:14:56;;;;;;;5.57;2.53;;;;;;;;;;5029647;28;20416;-72
2023/09/26 03:17:21;;;;;;;5.73;2.67;;;;;;;;;;5028553;28;20375;-72
2023/09/26 03:19:46;;;;;;;6.10;2.47;;;;;;;;;;5030352;28;20276;-72
2023/09/26 03:22:12;;;;;;;16.60;2.87;;;;;;;;;;5031046;28;20025;-72
2023/09/26 03:24:37;;;;;;;4.57;2.45;;;;;;;;;;5030026;28;20278;-72
2023/09/26 03:27:02;;;;;;;7.67;2.90;;;;;;;;;;5030361;28;20055;-72
2023/09/26 03:29:27;;;;;;;5.72;2.45;;;;;;;;;;5032505;28;20725;-72
2023/09/26 03:31:52;;;;;;;7.23;3.20;;;;;;;;;;5031865;28;20030;-72
2023/09/26 03:34:17;;;;;;;4.77;2.80;;;;;;;;;;5027857;28;20322;-72
2023/09/26 03:36:42;;;;;;;6.70;3.30;;;;;;;;;;5028909;28;20759;-72
2023/09/26 03:39:08;;;;;;;4.70;2.63;;;;;;;;;;5028740;28;20335;-72
2023/09/26 03:41:34;;;;;;;12.13;3.17;;;;;;;;;;5029855;28;20810;-72
2023/09/26 03:43:59;;;;;;;5.50;2.85;;;;;;;;;;5029225;28;20400;-72
2023/09/26 03:46:24;;;;;;;7.20;3.37;;;;;;;;;;5027941;28;20018;-72
2023/09/26 03:48:50;;;;;;;7.37;3.10;;;;;;;;;;5024268;28;20360;-72
2023/09/26 03:51:15;;;;;;;7.85;3.50;;;;;;;;;;5025882;28;20273;-72
2023/09/26 03:53:41;;;;;;;6.88;3.17;;;;;;;;;;5024476;28;20021;-72
2023/09/26 03:56:06;;;;;;;9.02;3.15;;;;;;;;;;5025442;28;20032;-72
2023/09/26 03:58:32;;;;;;;7.32;3.20;;;;;;;;;;5029943;28;20029;-72
2023/09/26 04:01:08;;;;;;;11.48;3.10;;;;;;;;;;5027003;28;20029;-72
2023/09/26 04:03:33;;;;;;;4.72;2.90;;;;;;;;;;5027096;28;20405;-72
2023/09/26 04:05:58;;;;;;;5.60;3.30;;;;;;;;;;5026134;28;20022;-72
2023/09/26 04:08:23;;;;;;;8.23;3.17;;;;;;;;;;5031400;28;20267;-72
2023/09/26 04:10:49;;;;;;;7.50;3.47;;;;;;;;;;5022830;28;20355;-72
2023/09/26 04:13:14;;;;;;;8.27;3.13;;;;;;;;;;5023599;28;20355;-72
2023/09/26 04:15:39;;;;;;;6.78;2.63;;;;;;;;;;5027820;28;20284;-72
2023/09/26 04:18:05;;;;;;;9.37;3.67;;;;;;;;;;5031144;28;20017;-72
2023/09/26 04:20:30;;;;;;;6.90;3.13;;;;;;;;;;5027067;28;20283;-72
2023/09/26 04:22:55;;;;;;;9.35;3.80;;;;;;;;;;5029197;28;20028;-72
2023/09/26 04:25:20;;;;;;;7.18;4.00;;;;;;;;;;5027495;28;20017;-72
2023/09/26 04:27:46;;;;;;;7.00;3.70;;;;;;;;;;5030449;28;20022;-72
2023/09/26 04:30:12;;;;;;;8.13;4.10;;;;;;;;;;5029003;28;20091;-72
2023/09/26 04:32:37;;;;;;;6.45;3.28;;;;;;;;;;5028549;28;20316;-72
2023/09/26 04:35:03;;;;;;;6.05;3.67;;;;;;;;;;5025844;28;20045;-72
2023/09/26 04:37:28;;;;;;;12.50;3.70;;;;;;;;;;5023470;28;20036;-72
2023/09/26 04:39:54;;;;;;;6.85;3.65;;;;;;;;;;5024771;28;20030;-72
2023/09/26 04:42:19;;;;;;;9.18;3.63;;;;;;;;;;5026266;28;21918;-72
2023/09/26 04:44:44;;;;;;;5.65;2.85;;;;;;;;;;5024883;28;20116;-72
2023/09/26 04:47:09;;;;;;;8.57;3.67;;;;;;;;;;5024813;28;20035;-72
2023/09/26 04:49:35;;;;;;;9.97;3.80;;;;;;;;;;5023458;28;20292;-72
2023/09/26 04:52:00;;;;;;;5.60;3.28;;;;;;;;;;5022927;28;20375;-72
2023/09/26 04:54:25;;;;;;;12.20;3.70;;;;;;;;;;5024384;28;20096;-72
2023/09/26 04:56:50;;;;;;;7.05;3.97;;;;;;;;;;5026944;28;20026;-72
2023/09/26 04:59:16;;;;;;;6.47;3.38;;;;;;;;;;5026690;28;20032;-72
2023/09/26 05:01:42;;;;;;;7.38;3.38;;;;;;;;;;5028763;28;20021;-72
2023/09/26 05:04:07;;;;;;;9.73;4.20;;;;;;;;;;5027722;28;20029;-72
2023/09/26 05:06:32;;;;;;;5.40;3.47;;;;;;;;;;5027161;28;20048;-72
2023/09/26 05:08:57;;;;;;;5.72;3.67;;;;;;;;;;5029862;28;20268;-72
2023/09/26 05:11:23;;;;;;;7.50;3.60;;;;;;;;;;5025817;28;20151;-72
2023/09/26 05:13:48;;;;;;;7.90;3.85;;;;;;;;;;5029742;28;20786;-72
2023/09/26 05:16:14;;;;;;;7.55;4.63;;;;;;;;;;5025908;28;20384;-72
2023/09/26 05:18:39;;;;;;;14.88;4.32;;;;;;;;;;5023036;28;20092;-72
2023/09/26 05:21:08;;;;;;;7.72;4.10;;;;;;;;;;5021240;28;20552;-72
2023/09/26 05:23:33;;;;;;;10.23;4.15;;;;;;;;;;5020075;28;20026;-72
2023/09/26 05:26:08;;;;;;;10.35;3.90;;;;;;;;;;5024194;28;20037;-72
2023/09/26 05:28:33;;;;;;;6.60;3.42;;;;;;;;;;5018163;28;20559;-72
2023/09/26 05:30:58;;;;;;;15.98;3.70;;;;;;;;;;5021543;28;20041;-72
2023/09/26 05:33:24;;;;;;;11.70;4.43;;;;;;;;;;5023454;28;20493;-72
2023/09/26 05:35:49;;;;;;;12.55;4.78;;;;;;;;;;5025572;28;20052;-72
2023/09/26 05:38:14;;;;;;;9.52;4.13;;;;;;;;;;5024435;28;20032;-72
2023/09/26 05:40:39;;;;;;;11.32;4.72;;;;;;;;;;5023494;28;20505;-72
2023/09/26 05:43:04;;;;;;;8.90;4.57;;;;;;;;;;5023989;28;20053;-72
2023/09/26 05:45:30;;;;;;;12.45;4.07;;;;;;;;;;5023702;28;20275;-72
2023/09/26 05:47:55;;;;;;;16.00;4.40;;;;;;;;;;5023582;28;20025;-72
2023/09/26 05:50:20;;;;;;;13.70;5.20;;;;;;;;;;5023830;28;20471;-72
2023/09/26 05:52:45;;;;;;;9.60;4.65;;;;;;;;;;5030592;28;20343;-72
2023/09/26 05:55:10;;;;;;;14.98;3.97;;;;;;;;;;5026775;28;20116;-72
2023/09/26 05:57:35;;;;;;;7.27;4.20;;;;;;;;;;5028629;28;20101;-72
2023/09/26 06:00:01;;;;;;;9.68;4.60;;;;;;;;;;5026258;28;20268;-72
2023/09/26 06:02:26;;;;;;;12.75;4.90;;;;;;;;;;5027644;28;20017;-72
2023/09/26 06:04:51;;;;;;;8.73;4.70;;;;;;;;;;5031811;28;20025;-72
2023/09/26 06:07:16;;;;;;;12.77;4.75;;;;;;;;;;5031072;28;20313;-72
2023/09/26 06:09:42;;;;;;;10.85;4.93;;;;;;;;;;5032680;28;20021;-72
2023/09/26 06:12:07;;;;;;;7.37;4.60;;;;;;;;;;5028297;28;20518;-72
2023/09/26 06:14:33;;;;;;;8.17;4.30;;;;;;;;;;5025889;28;20291;-72
2023/09/26 06:16:58;;;;;;;11.18;5.35;;;;;;;;;;5024371;28;20268;-72
2023/09/26 06:19:23;;;;;;;8.75;4.97;;;;;;;;;;5026864;28;20032;-72
2023/09/26 06:21:48;;;;;;;9.68;4.47;;;;;;;;;;5023678;28;20401;-72
2023/09/26 06:24:14;;;;;;;10.33;4.07;;;;;;;;;;5027332;28;20025;-72
2023/09/26 06:26:39;;;;;;;8.23;4.73;;;;;;;;;;5027159;28;20346;-72
2023/09/26 06:29:04;;;;;;;5.67;3.70;;;;;;;;;;5027173;28;20267;-72
2023/09/26 06:31:29;;;;;;;7.10;4.68;;;;;;;;;;5024404;28;20782;-72
2023/09/26 06:33:59;;;;;;;11.27;5.18;;;;;;;;;;5027188;28;20017;-72
2023/09/26 06:36:25;;;;;;;12.43;4.28;;;;;;;;;;5029444;28;20021;-72
2023/09/26 06:38:50;;;;;;;10.52;4.25;;;;;;;;;;5030826;28;20038;-72
2023/09/26 06:41:15;;;;;;;6.90;3.83;;;;;;;;;;5028919;28;20433;-73
2023/09/26 06:43:41;;;;;;;12.43;4.05;;;;;;;;;;5030589;28;20029;-72
2023/09/26 06:46:06;;;;;;;5.70;4.00;;;;;;;;;;5028154;28;20101;-72
2023/09/26 06:48:32;;;;;;;9.95;3.95;;;;;;;;;;5022645;28;20420;-73
2023/09/26 06:50:57;;;;;;;6.28;3.60;;;;;;;;;;5020383;28;20032;-72
2023/09/26 06:53:22;;;;;;;7.57;3.33;;;;;;;;;;5022426;28;20088;-72
2023/09/26 06:55:48;;;;;;;6.80;3.13;;;;;;;;;;5027007;28;20021;-72
2023/09/26 06:58:13;;;;;;;12.18;3.75;;;;;;;;;;5025440;28;20399;-73
2023/09/26 07:00:38;;;;;;;9.27;3.50;;;;;;;;;;5023431;28;20033;-72
2023/09/26 07:03:04;;;;;;;11.27;4.13;;;;;;;;;;5028779;28;20042;-73
2023/09/26 07:05:29;;;;;;;6.85;3.28;;;;;;;;;;5032022;28;20260;-72
2023/09/26 07:07:54;;;;;;;6.32;3.42;;;;;;;;;;5031507;28;20033;-72
2023/09/26 07:10:22;;;;;;;6.72;3.05;;;;;;;;;;5031080;28;20022;-72
2023/09/26 07:12:47;;;;;;;7.50;3.20;;;;;;;;;;5028834;28;20032;-72
2023/09/26 07:15:12;;;;;;;8.48;3.03;;;;;;;;;;5030024;28;20104;-73
2023/09/26 07:17:37;;;;;;;6.25;3.40;;;;;;;;;;5031370;28;20036;-72
2023/09/26 07:20:05;;;;;;;4.82;2.78;;;;;;;;;;5027382;28;20536;-73
2023/09/26 07:22:30;;;;;;;6.13;2.97;;;;;;;;;;5032687;28;20024;-73
2023/09/26 07:24:55;;;;;;;5.37;2.83;;;;;;;;;;5031298;28;20396;-72
2023/09/26 07:27:20;;;;;;;4.85;2.70;;;;;;;;;;5029337;28;20139;-73
2023/09/26 07:29:46;;;;;;;4.70;2.47;;;;;;;;;;5030278;28;20025;-73
2023/09/26 07:32:11;;;;;;;5.57;2.60;;;;;;;;;;5027658;28;20048;-73
2023/09/26 07:34:36;;;;;;;4.72;2.88;;;;;;;;;;5028838;28;20455;-73
2023/09/26 07:37:02;;;;;;;5.70;2.40;;;;;;;;;;5028363;28;20518;-73
2023/09/26 07:39:27;;;;;;;7.77;3.37;;;;;;;;;;5027689;28;20279;-73
2023/09/26 07:41:52;;;;;;;8.70;3.13;;;;;;;;;;5024415;28;20284;-74
2023/09/26 07:44:17;;;;;;;7.53;3.13;;;;;;;;;;5025590;28;20029;-73
2023/09/26 07:46:43;;;;;;;4.97;2.80;;;;;;;;;;5028018;28;20029;-73
2023/09/26 07:49:08;;;;;;;4.43;2.55;;;;;;;;;;5028025;28;20033;-73
2023/09/26 07:51:33;;;;;;;3.77;2.83;;;;;;;;;;5029420;28;20546;-74
2023/09/26 07:53:58;;;;;;;4.83;2.67;;;;;;;;;;5028731;28;20030;-73
2023/09/26 07:56:24;;;;;;;5.13;2.80;;;;;;;;;;5025989;28;20413;-74
2023/09/26 07:58:50;;;;;;;6.30;2.45;;;;;;;;;;5026452;28;20104;-73
2023/09/26 08:01:15;;;;;;;6.97;2.20;;;;;;;;;;5028414;28;20014;-73
2023/09/26 08:03:43;;;;;;;5.60;2.47;;;;;;;;;;5030446;28;20071;-73
2023/09/26 08:06:09;;;;;;;7.32;2.72;;;;;;;;;;5029865;28;20029;-73
2023/09/26 08:08:35;;;;;;;4.30;2.30;;;;;;;;;;5028094;28;20112;-72
2023/09/26 08:11:05;;;;;;;3.97;2.13;;;;;;;;;;5027796;28;20427;-74
2023/09/26 08:13:31;;;;;;;6.72;1.85;;;;;;;;;;5030470;28;20018;-74
2023/09/26 08:15:56;;;;;;;5.22;1.92;;;;;;;;;;5030701;28;20392;-73
2023/09/26 08:18:22;;;;;;;2.80;1.77;;;;;;;;;;5030258;28;20088;-73
2023/09/26 08:20:47;;;;;;;14.20;2.47;;;;;;;;;;5030036;28;20449;-75
2023/09/26 08:23:12;;;;;;;8.70;2.40;;;;;;;;;;5027866;28;20093;-73
2023/09/26 08:25:37;;;;;;;4.00;1.73;;;;;;;;;;5028632;28;22062;-74
2023/09/26 08:28:03;;;;;;;5.63;1.77;;;;;;;;;;5027294;28;20024;-73
2023/09/26 08:30:28;;;;;;;4.40;1.85;;;;;;;;;;5026564;28;20087;-73
2023/09/26 08:32:53;;;;;;;5.00;1.83;;;;;;;;;;5026680;28;20021;-73
2023/09/26 08:35:18;;;;;;;6.00;1.90;;;;;;;;;;5029874;28;20032;-73
2023/09/26 08:37:44;;;;;;;3.57;1.90;;;;;;;;;;5025808;28;20025;-75
2023/09/26 08:40:12;;;;;;;3.28;1.88;;;;;;;;;;5025572;28;20275;-74
2023/09/26 08:42:39;;;;;;;5.95;1.27;;;;;;;;;;5025682;28;20013;-73
2023/09/26 08:45:05;;;;;;;4.25;2.13;;;;;;;;;;5026600;28;20025;-72
2023/09/26 08:47:31;;;;;;;2.53;1.52;;;;;;;;;;5024536;28;20032;-73
2023/09/26 08:49:56;;;;;;;7.07;2.13;;;;;;;;;;5024098;28;20029;-73
2023/09/26 08:52:22;;;;;;;4.00;2.00;;;;;;;;;;5027839;28;20037;-73
2023/09/26 08:54:47;;;;;;;5.90;2.00;;;;;;;;;;5026095;28;20038;-73
2023/09/26 08:57:13;;;;;;;2.42;1.45;;;;;;;;;;5026405;28;20024;-72
2023/09/26 08:59:39;;;;;;;3.83;1.60;;;;;;;;;;5028561;28;20546;-72
2023/09/26 09:02:04;;;;;;;3.72;1.83;;;;;;;;;;5037503;28;20098;-73
2023/09/26 09:04:29;;;;;;;2.53;1.52;;;;;;;;;;5029436;28;20028;-73
2023/09/26 09:07:02;;;;;;;3.55;1.88;;;;;;;;;;5028027;28;20029;-72
2023/09/26 09:09:28;;;;;;;7.82;1.90;;;;;;;;;;5026063;28;20017;-73
2023/09/26 09:11:53;;;;;;;5.15;1.65;;;;;;;;;;5023053;28;20032;-72
2023/09/26 09:14:30;;;;;;;3.63;1.60;;;;;;;;;;5028802;28;20025;-73
2023/09/26 09:16:55;;;;;;;14.38;1.67;;;;;;;;;;5028566;28;20423;-73
2023/09/26 09:19:21;;;;;;;5.47;2.08;;;;;;;;;;5018640;28;20013;-72
2023/09/26 09:21:46;;;;;;;2.90;1.90;;;;;;;;;;5025664;28;20029;-72
2023/09/26 09:24:12;;;;;;;2.78;1.70;;;;;;;;;;5026521;28;20268;-72
2023/09/26 09:26:37;;;;;;;6.00;1.13;;;;;;;;;;5025745;28;20096;-72
2023/09/26 09:29:22;;;;;;;5.03;1.80;;;;;;;;;;5029744;28;20025;-72
2023/09/26 09:31:48;;;;;;;1.10;0.85;;;;;;;;;;5034271;28;20516;-72
2023/09/26 09:34:16;;;;;;;3.58;2.10;;;;;;;;;;5028403;28;20093;-73
2023/09/26 09:36:43;;;;;;;4.05;1.77;;;;;;;;;;5033078;28;20741;-72
2023/09/26 09:39:09;;;;;;;3.85;1.70;;;;;;;;;;5039185;28;20033;-72
2023/09/26 09:41:37;;;;;;;3.75;1.70;;;;;;;;;;5029359;28;20009;-72
2023/09/26 09:44:03;;;;;;;2.65;1.33;;;;;;;;;;5031687;28;20025;-72
2023/09/26 09:46:30;;;;;;;4.15;1.00;;;;;;;;;;5032559;28;20087;-72
2023/09/26 09:48:58;;;;;;;3.30;1.08;;;;;;;;;;5033041;28;20052;-71
2023/09/26 09:51:23;;;;;;;2.72;1.50;;;;;;;;;;5030585;28;20021;-71
2023/09/26 09:53:54;;;;;;;5.32;1.90;;;;;;;;;;5034223;28;20499;-72
2023/09/26 09:56:20;;;;;;;9.75;2.13;;;;;;;;;;5032250;28;20372;-72
2023/09/26 09:58:48;;;;;;;5.45;1.90;;;;;;;;;;5045704;28;20071;-72
2023/09/26 10:01:14;;;;;;;2.95;1.40;;;;;;;;;;5026088;28;20428;-72
2023/09/26 10:03:39;;;;;;;4.47;1.65;;;;;;;;;;5035765;28;20021;-72
2023/09/26 10:06:06;;;;;;;2.22;1.25;;;;;;;;;;5030851;28;20024;-72
2023/09/26 10:08:31;;;;;;;5.30;2.35;;;;;;;;;;5040236;28;20506;-72
2023/09/26 10:10:57;;;;;;;3.28;1.40;;;;;;;;;;5032614;28;20029;-72
2023/09/26 10:13:22;;;;;;;3.78;1.50;;;;;;;;;;5032810;28;20541;-72
2023/09/26 10:16:07;;;;;;;1.37;1.07;;;;;;;;;;5036926;28;20086;-72
2023/09/26 10:18:43;;;;;;;2.65;1.27;;;;;;;;;;5041606;28;20022;-72
2023/09/26 10:21:27;;;;;;;3.83;1.77;;;;;;;;;;5029523;28;20020;-72
2023/09/26 10:24:15;;;;;;;3.63;2.25;;;;;;;;;;5028495;28;20034;-72
2023/09/26 10:26:47;;;;;;;9.18;1.05;;;;;;;;;;5028278;28;20040;-72
2023/09/26 10:29:25;;;;;;;3.95;1.35;;;;;;;;;;5032374;28;20096;-72
2023/09/26 10:31:54;;;;;;;5.28;1.73;;;;;;;;;;5032594;28;20026;-72
2023/09/26 10:34:29;;;;;;;6.38;1.45;;;;;;;;;;5033033;28;20052;-72
2023/09/26 10:36:55;;;;;;;5.63;1.30;;;;;;;;;;5033128;28;20112;-72
2023/09/26 10:39:31;;;;;;;3.28;1.48;;;;;;;;;;5029338;28;20092;-72
2023/09/26 10:41:59;;;;;;;6.40;1.73;;;;;;;;;;5031574;28;20031;-72
2023/09/26 10:44:24;;;;;;;4.82;1.48;;;;;;;;;;5030667;28;20041;-72
2023/09/26 10:46:49;;;;;;;3.07;1.70;;;;;;;;;;5030436;28;20029;-72
2023/09/26 10:49:15;;;;;;;2.33;1.50;;;;;;;;;;5041381;28;20527;-71
2023/09/26 10:51:40;;;;;;;2.47;1.53;;;;;;;;;;5042784;28;20032;-72
2023/09/26 10:54:05;;;;;;;3.80;1.73;;;;;;;;;;5043024;28;20073;-72
2023/09/26 10:56:31;;;;;;;3.45;1.30;;;;;;;;;;5030643;28;20026;-72
2023/09/26 10:58:56;;;;;;;3.45;0.82;;;;;;;;;;5030670;28;20104;-72
2023/09/26 11:01:35;;;;;;;3.50;0.90;;;;;;;;;;5034021;28;20021;-72
2023/09/26 11:04:00;;;;;;;4.78;1.60;;;;;;;;;;5039326;28;20287;-72
2023/09/26 11:06:25;;;;;;;3.53;1.43;;;;;;;;;;5040361;28;20026;-72
2023/09/26 11:08:50;;;;;;;3.77;1.73;;;;;;;;;;5039311;28;20284;-72
2023/09/26 11:11:18;;;;;;;4.47;1.83;;;;;;;;;;5032434;28;20021;-72
2023/09/26 11:13:44;;;;;;;3.55;1.65;;;;;;;;;;5029425;28;20288;-72
2023/09/26 11:16:09;;;;;;;3.05;1.33;;;;;;;;;;5031355;28;20100;-72
2023/09/26 11:18:34;;;;;;;2.53;1.23;;;;;;;;;;5031385;28;20060;-71
2023/09/26 11:21:00;;;;;;;3.50;1.60;;;;;;;;;;5030857;28;20064;-72
2023/09/26 11:23:39;;;;;;;1.67;1.10;;;;;;;;;;5031910;28;20108;-72
2023/09/26 11:26:05;;;;;;;2.90;1.50;;;;;;;;;;5033324;28;20033;-71
2023/09/26 11:28:31;;;;;;;3.28;0.98;;;;;;;;;;5028878;28;20029;-72
2023/09/26 11:30:56;;;;;;;2.22;1.48;;;;;;;;;;5034009;28;20032;-72
2023/09/26 11:33:21;;;;;;;0.88;0.43;;;;;;;;;;5028954;28;20029;-72
2023/09/26 11:35:46;;;;;;;0.50;0.40;;;;;;;;;;5030213;28;20033;-72
2023/09/26 11:38:13;;;;;;;2.87;1.50;;;;;;;;;;5027083;28;20605;-72
2023/09/26 11:40:39;;;;;;;2.88;1.35;;;;;;;;;;5023114;28;20026;-73
2023/09/26 11:43:06;;;;;;;2.78;1.33;;;;;;;;;;5023239;28;20021;-72
2023/09/26 11:45:31;;;;;;;3.03;1.50;;;;;;;;;;5032353;28;20023;-72
2023/09/26 11:47:57;;;;;;;2.95;1.15;;;;;;;;;;5025203;28;20406;-72
2023/09/26 11:50:23;;;;;;;3.35;1.23;;;;;;;;;;5028316;28;20067;-72
2023/09/26 11:52:48;;;;;;;2.92;1.50;;;;;;;;;;5026142;28;20032;-72
2023/09/26 11:55:22;;;;;;;2.60;1.13;;;;;;;;;;5024019;28;20108;-72
2023/09/26 11:57:50;;;;;;;4.88;1.90;;;;;;;;;;5026662;28;20029;-72
2023/09/26 12:00:16;;;;;;;2.45;1.55;;;;;;;;;;5023462;28;20484;-72
2023/09/26 12:02:59;;;;;;;3.50;1.77;;;;;;;;;;5027410;28;20017;-72
2023/09/26 12:05:24;;;;;;;4.10;1.40;;;;;;;;;;5035628;28;20482;-72
2023/09/26 12:07:50;;;;;;;3.90;1.92;;;;;;;;;;5022939;28;20076;-72
2023/09/26 12:10:15;;;;;;;1.88;1.48;;;;;;;;;;5027899;28;20021;-72
2023/09/26 12:12:41;;;;;;;1.45;0.68;;;;;;;;;;5021038;28;20068;-72
2023/09/26 12:15:25;;;;;;;3.15;1.42;;;;;;;;;;5019095;28;20116;-72
2023/09/26 12:17:52;;;;;;;4.32;1.98;;;;;;;;;;5021471;28;20025;-72
2023/09/26 12:20:21;;;;;;;1.42;0.98;;;;;;;;;;5029328;28;20392;-72
2023/09/26 12:22:47;;;;;;;2.92;2.05;;;;;;;;;;5029687;28;20013;-72
2023/09/26 12:25:12;;;;;;;2.55;1.40;;;;;;;;;;5028609;28;20044;-72
2023/09/26 12:27:37;;;;;;;2.90;1.60;;;;;;;;;;5017372;28;20480;-72
2023/09/26 12:30:03;;;;;;;1.73;1.10;;;;;;;;;;5025123;28;20022;-72
2023/09/26 12:32:28;;;;;;;5.82;1.70;;;;;;;;;;5023016;28;20037;-72
2023/09/26 12:34:53;;;;;;;1.48;0.80;;;;;;;;;;5027740;28;20027;-71
2023/09/26 12:37:18;;;;;;;7.65;1.55;;;;;;;;;;5031222;28;20056;-72
2023/09/26 12:39:44;;;;;;;7.85;1.73;;;;;;;;;;5025933;28;20021;-72
2023/09/26 12:42:09;;;;;;;3.63;1.20;;;;;;;;;;5030171;28;20079;-72
2023/09/26 12:44:36;;;;;;;3.20;2.00;;;;;;;;;;5027301;28;20029;-71
2023/09/26 12:47:01;;;;;;;4.25;1.75;;;;;;;;;;5030794;28;20420;-72
2023/09/26 12:49:27;;;;;;;3.95;1.55;;;;;;;;;;5037911;28;20078;-72
2023/09/26 12:51:52;;;;;;;3.83;2.17;;;;;;;;;;5043029;28;20025;-72
2023/09/26 12:54:17;;;;;;;3.45;1.50;;;;;;;;;;5025755;28;20033;-72
2023/09/26 12:56:42;;;;;;;3.90;1.97;;;;;;;;;;5031389;28;20139;-72
2023/09/26 12:59:07;;;;;;;1.40;1.00;;;;;;;;;;5025055;28;20400;-71
2023/09/26 13:01:34;;;;;;;3.50;2.45;;;;;;;;;;5030008;28;20107;-72
2023/09/26 13:03:59;;;;;;;5.97;1.85;;;;;;;;;;5026669;28;20477;-71
2023/09/26 13:06:24;;;;;;;2.50;1.30;;;;;;;;;;5028494;28;20029;-72
2023/09/26 13:08:49;;;;;;;4.03;1.50;;;;;;;;;;5041574;28;20267;-72
2023/09/26 13:11:14;;;;;;;1.60;0.77;;;;;;;;;;5031533;28;20032;-71
2023/09/26 13:13:40;;;;;;;2.63;1.53;;;;;;;;;;5036459;28;20902;-72
2023/09/26 13:16:05;;;;;;;3.60;1.67;;;;;;;;;;5026577;28;20032;-72
2023/09/26 13:18:30;;;;;;;3.95;1.70;;;;;;;;;;5028064;28;20254;-72
2023/09/26 13:20:56;;;;;;;3.70;1.50;;;;;;;;;;5042383;28;20421;-72
2023/09/26 13:23:21;;;;;;;6.72;1.50;;;;;;;;;;5020518;28;20273;-72
2023/09/26 13:25:46;;;;;;;4.37;1.87;;;;;;;;;;5026467;28;20048;-72
2023/09/26 13:28:11;;;;;;;3.83;1.50;;;;;;;;;;5027090;28;20342;-72
2023/09/26 13:30:36;;;;;;;2.00;1.10;;;;;;;;;;5026936;28;20264;-72
2023/09/26 13:33:02;;;;;;;3.40;1.60;;;;;;;;;;5014967;28;20391;-72
2023/09/26 13:35:28;;;;;;;3.20;2.05;;;;;;;;;;5023442;28;20476;-72
2023/09/26 13:37:53;;;;;;;3.58;1.17;;;;;;;;;;5020852;28;20052;-72
2023/09/26 13:40:18;;;;;;;2.40;1.30;;;;;;;;;;5022955;28;20014;-72
2023/09/26 13:42:43;;;;;;;9.03;0.97;;;;;;;;;;5019286;28;20045;-72
2023/09/26 13:45:09;;;;;;;2.30;1.40;;;;;;;;;;5029904;28;20418;-72
2023/09/26 13:47:34;;;;;;;2.47;1.30;;;;;;;;;;5028393;28;20021;-72
2023/09/26 13:49:59;;;;;;;1.70;1.00;;;;;;;;;;5025961;28;20029;-72
2023/09/26 13:52:25;;;;;;;3.10;1.60;;;;;;;;;;5035572;28;20044;-72
2023/09/26 13:54:52;;;;;;;6.03;1.43;;;;;;;;;;5029482;28;20025;-71
2023/09/26 13:57:17;;;;;;;2.95;1.40;;;;;;;;;;5029680;28;20264;-72
2023/09/26 13:59:43;;;;;;;7.45;1.33;;;;;;;;;;5026808;28;20028;-72
2023/09/26 14:02:09;;;;;;;2.70;1.50;;;;;;;;;;5028254;28;20029;-72
2023/09/26 14:04:34;;;;;;;4.27;1.43;;;;;;;;;;5029992;28;20030;-72
2023/09/26 14:07:00;;;;;;;6.73;1.57;;;;;;;;;;5028987;28;20268;-72
2023/09/26 14:09:26;;;;;;;4.13;1.45;;;;;;;;;;5030820;28;20518;-72
2023/09/26 14:11:51;;;;;;;3.13;1.60;;;;;;;;;;5028592;28;20104;-72
2023/09/26 14:14:16;;;;;;;4.27;1.40;;;;;;;;;;5042700;28;20321;-72
2023/09/26 14:16:42;;;;;;;2.93;1.67;;;;;;;;;;5035989;28;20538;-72
2023/09/26 14:19:07;;;;;;;4.35;1.50;;;;;;;;;;5031765;28;20022;-72
2023/09/26 14:21:32;;;;;;;2.93;1.60;;;;;;;;;;5041568;28;20482;-72
2023/09/26 14:23:58;;;;;;;2.97;1.40;;;;;;;;;;5036372;28;20063;-72
2023/09/26 14:26:24;;;;;;;1.55;0.93;;;;;;;;;;5033445;28;20064;-72
2023/09/26 14:28:51;;;;;;;2.85;1.70;;;;;;;;;;5041350;28;20048;-72
2023/09/26 14:31:19;;;;;;;2.83;1.35;;;;;;;;;;5037700;28;20033;-72
2023/09/26 14:33:44;;;;;;;2.65;1.50;;;;;;;;;;5030712;28;20017;-72